createdAt,value
2018-11-20T00:00:12.905Z,3.80
2018-11-20T00:05:55.481Z,3.78
2018-11-20T00:08:43.738Z,3.75
2018-11-20T00:11:31.996Z,3.77
2018-11-20T00:14:20.338Z,3.81
2018-11-20T00:19:55.589Z,3.73
2018-11-20T00:22:43.812Z,3.78
2018-11-20T00:25:32.071Z,3.70
2018-11-20T00:28:20.507Z,3.86
2018-11-20T00:31:09.082Z,3.76
2018-11-20T00:33:57.307Z,3.72
2018-11-20T00:36:45.571Z,3.76
2018-11-20T00:39:33.847Z,3.77
2018-11-20T00:42:22.195Z,3.82
2018-11-20T00:45:10.715Z,3.68
2018-11-20T00:57:14.111Z,3.57
2018-11-20T01:00:02.872Z,3.53
2018-11-20T01:02:51.098Z,3.44
2018-11-20T01:08:33.936Z,3.45
2018-11-20T01:11:41.100Z,3.53
2018-11-20T01:14:29.424Z,3.47
2018-11-20T01:17:17.951Z,3.46
2018-11-20T01:20:06.228Z,3.46
2018-11-20T01:22:54.506Z,3.44
2018-11-20T01:25:42.796Z,3.44
2018-11-20T01:28:31.031Z,3.46
2018-11-20T01:31:11.243Z,3.43
2018-11-20T01:36:59.442Z,3.41
2018-11-20T01:39:37.415Z,3.50
2018-11-20T01:42:25.684Z,3.56
2018-11-20T01:45:15.050Z,3.50
2018-11-20T01:48:03.386Z,3.52
2018-11-20T01:50:51.607Z,3.59
2018-11-20T01:53:40.742Z,3.67
2018-11-20T01:56:29.202Z,3.54
2018-11-20T02:02:22.517Z,3.59
2018-11-20T02:05:10.778Z,3.49
2018-11-20T02:14:30.079Z,3.58
2018-11-20T02:17:23.966Z,3.54
2018-11-20T02:20:12.229Z,3.51
2018-11-20T02:23:19.420Z,3.53
2018-11-20T02:26:07.739Z,3.52
2018-11-20T02:31:38.516Z,3.66
2018-11-20T02:34:28.399Z,3.62
2018-11-20T02:37:35.609Z,3.58
2018-11-20T02:40:23.907Z,3.53
2018-11-20T02:43:12.131Z,3.71
2018-11-20T02:46:00.461Z,3.67
2018-11-20T02:48:48.781Z,3.72
2018-11-20T02:51:37.127Z,3.69
2018-11-20T02:54:25.579Z,3.67
2018-11-20T02:57:13.851Z,3.67
2018-11-20T03:00:02.916Z,3.61
2018-11-20T03:02:51.275Z,3.62
2018-11-20T03:05:39.510Z,3.60
2018-11-20T03:08:27.841Z,3.79
2018-11-20T03:11:16.050Z,3.82
2018-11-20T03:14:04.309Z,3.88
2018-11-20T03:16:52.833Z,3.97
2018-11-20T03:19:41.276Z,3.91
2018-11-20T03:22:28.630Z,3.84
2018-11-20T03:25:16.986Z,3.86
2018-11-20T03:27:57.441Z,3.92
2018-11-20T03:39:40.964Z,4.01
2018-11-20T03:42:19.722Z,4.01
2018-11-20T03:45:08.746Z,4.02
2018-11-20T03:47:57.074Z,4.04
2018-11-20T03:50:45.228Z,4.04
2018-11-20T03:53:31.704Z,4.11
2018-11-20T03:56:20.033Z,4.11
2018-11-20T03:59:08.303Z,3.93
2018-11-20T04:01:56.536Z,4.12
2018-11-20T04:04:44.798Z,4.12
2018-11-20T04:07:33.032Z,4.13
2018-11-20T04:10:21.307Z,4.06
2018-11-20T04:13:09.540Z,4.17
2018-11-20T04:15:57.805Z,4.20
2018-11-20T04:18:46.039Z,4.16
2018-11-20T04:21:34.731Z,4.19
2018-11-20T04:24:23.002Z,4.27
2018-11-20T04:27:11.303Z,4.24
2018-11-20T04:29:59.562Z,4.12
2018-11-20T04:32:48.195Z,4.20
2018-11-20T04:35:36.447Z,4.23
2018-11-20T04:38:24.680Z,4.15
2018-11-20T04:41:13.123Z,4.13
2018-11-20T04:43:51.910Z,4.14
2018-11-20T04:46:40.379Z,4.20
2018-11-20T04:49:16.679Z,4.05
2018-11-20T04:52:04.956Z,3.99
2018-11-20T04:54:53.518Z,4.10
2018-11-20T04:57:41.874Z,4.05
2018-11-20T05:00:19.662Z,4.00
2018-11-20T05:03:07.935Z,4.12
2018-11-20T05:05:56.154Z,4.18
2018-11-20T05:08:44.419Z,4.20
2018-11-20T05:14:29.124Z,4.31
2018-11-20T05:17:17.345Z,4.27
2018-11-20T05:20:24.718Z,4.18
2018-11-20T05:23:13.952Z,4.21
2018-11-20T05:26:02.166Z,4.25
2018-11-20T05:28:50.618Z,4.36
2018-11-20T05:31:38.905Z,4.25
2018-11-20T05:34:27.172Z,4.20
2018-11-20T05:37:15.479Z,4.24
2018-11-20T05:40:03.740Z,4.32
2018-11-20T05:42:51.958Z,4.31
2018-11-20T05:45:40.412Z,4.33
2018-11-20T05:48:28.716Z,4.28
2018-11-20T05:51:17.333Z,4.25
2018-11-20T05:54:05.643Z,4.23
2018-11-20T05:56:54.271Z,4.25
2018-11-20T05:59:43.111Z,4.28
2018-11-20T06:02:31.378Z,4.33
2018-11-20T06:05:19.869Z,4.26
2018-11-20T06:08:08.084Z,4.34
2018-11-20T06:10:56.544Z,4.34
2018-11-20T06:13:44.876Z,4.36
2018-11-20T06:16:33.230Z,4.32
2018-11-20T06:19:21.566Z,4.28
2018-11-20T06:22:09.817Z,4.25
2018-11-20T06:24:58.060Z,4.29
2018-11-20T06:27:46.339Z,4.31
2018-11-20T06:30:34.617Z,4.32
2018-11-20T06:33:23.901Z,4.38
2018-11-20T06:36:12.152Z,4.43
2018-11-20T06:39:00.457Z,4.45
2018-11-20T06:41:48.829Z,4.46
2018-11-20T06:44:37.066Z,4.49
2018-11-20T06:47:26.107Z,4.54
2018-11-20T06:50:15.145Z,4.55
2018-11-20T06:53:03.712Z,4.59
2018-11-20T06:55:51.811Z,4.70
2018-11-20T06:58:40.061Z,4.73
2018-11-20T07:01:29.095Z,4.69
2018-11-20T07:04:17.289Z,4.73
2018-11-20T07:07:03.236Z,4.76
2018-11-20T07:09:51.666Z,4.80
2018-11-20T07:12:40.154Z,4.82
2018-11-20T07:15:28.801Z,4.85
2018-11-20T07:18:16.858Z,4.87
2018-11-20T07:21:05.074Z,4.82
2018-11-20T07:23:53.399Z,4.91
2018-11-20T07:26:41.981Z,4.74
2018-11-20T07:29:30.220Z,4.79
2018-11-20T07:32:18.444Z,4.87
2018-11-20T07:35:06.843Z,4.97
2018-11-20T07:37:57.500Z,5.02
2018-11-20T07:40:43.499Z,5.07
2018-11-20T07:43:31.859Z,5.11
2018-11-20T07:46:19.968Z,5.16
2018-11-20T07:49:27.175Z,5.26
2018-11-20T07:52:15.744Z,5.39
2018-11-20T07:54:58.912Z,5.47
2018-11-20T07:57:47.328Z,5.47
2018-11-20T08:00:35.940Z,5.51
2018-11-20T08:03:24.208Z,5.59
2018-11-20T08:06:12.417Z,5.66
2018-11-20T08:11:54.951Z,5.44
2018-11-20T08:14:34.800Z,5.45
2018-11-20T08:17:41.929Z,5.56
2018-11-20T08:20:30.262Z,5.65
2018-11-20T08:23:18.549Z,5.65
2018-11-20T08:26:07.197Z,5.72
2018-11-20T08:28:55.465Z,5.74
2018-11-20T08:31:43.698Z,5.80
2018-11-20T08:34:32.023Z,5.86
2018-11-20T08:37:20.309Z,5.99
2018-11-20T08:40:09.230Z,6.03
2018-11-20T08:42:57.486Z,6.32
2018-11-20T08:45:45.779Z,6.41
2018-11-20T08:48:34.035Z,6.44
2018-11-20T08:51:41.166Z,6.28
2018-11-20T08:54:29.411Z,6.30
2018-11-20T08:57:17.628Z,6.40
2018-11-20T09:00:05.891Z,6.45
2018-11-20T09:02:54.105Z,6.56
2018-11-20T09:05:42.346Z,6.66
2018-11-20T09:08:30.748Z,6.69
2018-11-20T09:11:18.993Z,6.65
2018-11-20T09:14:07.549Z,6.74
2018-11-20T09:16:55.802Z,6.86
2018-11-20T09:19:44.086Z,6.91
2018-11-20T09:22:32.360Z,6.91
2018-11-20T09:25:20.569Z,6.95
2018-11-20T09:28:08.934Z,7.05
2018-11-20T09:30:57.099Z,7.17
2018-11-20T09:33:45.438Z,7.24
2018-11-20T09:36:33.770Z,7.24
2018-11-20T09:39:22.018Z,7.32
2018-11-20T09:42:10.332Z,7.39
2018-11-20T09:45:22.973Z,7.43
2018-11-20T09:48:11.180Z,7.44
2018-11-20T09:50:59.895Z,7.49
2018-11-20T09:53:48.108Z,7.54
2018-11-20T09:56:36.506Z,7.66
2018-11-20T09:59:24.840Z,7.63
2018-11-20T10:02:13.456Z,7.72
2018-11-20T10:05:01.730Z,7.79
2018-11-20T10:07:49.979Z,7.80
2018-11-20T10:10:57.169Z,7.69
2018-11-20T10:13:44.266Z,7.61
2018-11-20T10:16:32.485Z,7.66
2018-11-20T10:19:21.710Z,7.72
2018-11-20T10:22:28.898Z,7.81
2018-11-20T10:25:17.191Z,7.75
2018-11-20T10:28:05.426Z,7.52
2018-11-20T10:30:53.633Z,7.51
2018-11-20T10:33:41.937Z,7.63
2018-11-20T10:36:30.175Z,7.74
2018-11-20T10:39:18.578Z,7.88
2018-11-20T10:42:06.939Z,7.95
2018-11-20T10:44:55.180Z,7.91
2018-11-20T10:47:44.278Z,7.97
2018-11-20T10:50:32.617Z,8.08
2018-11-20T10:53:20.824Z,8.09
2018-11-20T10:56:09.395Z,7.90
2018-11-20T10:58:57.601Z,7.68
2018-11-20T11:01:45.841Z,7.54
2018-11-20T11:04:34.131Z,7.42
2018-11-20T11:07:22.391Z,7.55
2018-11-20T11:10:12.940Z,7.84
2018-11-20T11:13:01.269Z,8.03
2018-11-20T11:15:49.778Z,8.05
2018-11-20T11:18:38.033Z,7.84
2018-11-20T11:21:26.356Z,7.73
2018-11-20T11:24:14.559Z,7.46
2018-11-20T11:27:03.420Z,7.35
2018-11-20T11:30:10.560Z,7.35
2018-11-20T11:32:58.823Z,7.35
2018-11-20T11:35:47.029Z,7.36
2018-11-20T11:38:35.304Z,7.38
2018-11-20T11:41:23.585Z,7.25
2018-11-20T11:44:11.857Z,7.47
2018-11-20T11:47:00.062Z,7.64
2018-11-20T11:49:48.503Z,7.77
2018-11-20T11:52:25.505Z,7.86
2018-11-20T11:55:32.537Z,7.78
2018-11-20T11:58:20.744Z,7.72
2018-11-20T12:01:03.766Z,7.61
2018-11-20T12:03:52.102Z,7.52
2018-11-20T12:06:40.310Z,7.46
2018-11-20T12:09:29.188Z,7.56
2018-11-20T12:12:17.545Z,7.59
2018-11-20T12:15:07.244Z,7.70
2018-11-20T12:17:54.511Z,7.76
2018-11-20T12:20:43.455Z,7.64
2018-11-20T12:23:31.120Z,7.66
2018-11-20T12:26:19.399Z,7.75
2018-11-20T12:29:07.709Z,7.85
2018-11-20T12:31:55.975Z,7.97
2018-11-20T12:34:44.282Z,7.93
2018-11-20T12:37:32.492Z,7.86
2018-11-20T12:40:20.777Z,7.82
2018-11-20T12:43:08.982Z,7.85
2018-11-20T12:45:58.317Z,7.91
2018-11-20T12:48:47.751Z,7.96
2018-11-20T12:51:36.005Z,7.83
2018-11-20T12:54:16.376Z,7.72
2018-11-20T12:57:04.640Z,7.73
2018-11-20T12:59:52.848Z,7.79
2018-11-20T13:02:41.421Z,7.96
2018-11-20T13:05:48.553Z,8.12
2018-11-20T13:08:55.741Z,8.36
2018-11-20T13:11:44.037Z,8.38
2018-11-20T13:14:33.158Z,8.42
2018-11-20T13:17:21.399Z,8.59
2018-11-20T13:20:10.603Z,8.76
2018-11-20T13:22:58.174Z,8.86
2018-11-20T13:25:46.423Z,8.95
2018-11-20T13:28:34.634Z,9.09
2018-11-20T13:31:22.884Z,9.34
2018-11-20T13:34:11.594Z,9.69
2018-11-20T13:37:13.805Z,10.07
2018-11-20T13:40:01.005Z,10.41
2018-11-20T13:42:52.754Z,10.74
2018-11-20T13:45:55.403Z,11.00
2018-11-20T13:48:42.684Z,11.32
2018-11-20T13:51:31.850Z,11.70
2018-11-20T13:54:19.613Z,12.15
2018-11-20T13:57:07.235Z,12.50
2018-11-20T14:00:01.427Z,12.72
2018-11-20T14:02:44.219Z,13.07
2018-11-20T14:05:32.496Z,13.29
2018-11-20T14:08:14.307Z,13.66
2018-11-20T14:11:03.698Z,14.17
2018-11-20T14:13:51.916Z,15.35
2018-11-20T14:16:40.200Z,16.83
2018-11-20T14:19:47.392Z,18.25
2018-11-20T14:22:35.646Z,19.56
2018-11-20T14:28:49.240Z,21.25
2018-11-20T14:31:37.903Z,21.59
2018-11-20T14:37:27.230Z,18.50
2018-11-20T14:43:20.638Z,14.30
2018-11-20T14:46:09.372Z,13.00
2018-11-20T14:48:58.302Z,12.04
2018-11-20T14:51:35.212Z,11.31
2018-11-20T14:54:23.500Z,10.84
2018-11-20T14:57:11.747Z,10.47
2018-11-20T15:00:00.865Z,10.14
2018-11-20T15:02:41.499Z,9.96
2018-11-20T15:05:48.680Z,9.75
2018-11-20T15:08:36.222Z,9.63
2018-11-20T15:11:25.042Z,9.44
2018-11-20T15:14:13.264Z,9.33
2018-11-20T15:17:20.482Z,9.17
2018-11-20T15:20:08.695Z,9.09
2018-11-20T15:22:54.188Z,8.94
2018-11-20T15:28:39.977Z,8.72
2018-11-20T15:31:28.197Z,8.59
2018-11-20T15:34:16.671Z,8.52
2018-11-20T15:37:05.367Z,8.44
2018-11-20T15:39:54.151Z,8.42
2018-11-20T15:42:43.019Z,8.27
2018-11-20T15:45:31.295Z,8.16
2018-11-20T15:48:38.424Z,8.17
2018-11-20T15:51:26.913Z,8.05
2018-11-20T15:54:15.151Z,7.90
2018-11-20T15:57:03.431Z,7.79
2018-11-20T15:59:56.056Z,7.67
2018-11-20T16:02:39.909Z,7.61
2018-11-20T16:05:28.187Z,7.54
2018-11-20T16:08:16.398Z,7.48
2018-11-20T16:11:04.677Z,7.43
2018-11-20T16:13:53.287Z,7.39
2018-11-20T16:16:41.569Z,7.34
2018-11-20T16:19:29.955Z,7.32
2018-11-20T16:22:18.281Z,7.35
2018-11-20T16:25:06.826Z,7.27
2018-11-20T16:27:55.165Z,7.19
2018-11-20T16:30:43.405Z,7.13
2018-11-20T16:33:31.759Z,7.18
2018-11-20T16:36:20.034Z,7.13
2018-11-20T16:39:08.325Z,7.26
2018-11-20T16:41:56.607Z,7.12
2018-11-20T16:44:45.172Z,7.08
2018-11-20T16:47:33.405Z,7.00
2018-11-20T16:50:21.664Z,6.98
2018-11-20T16:53:09.874Z,6.99
2018-11-20T16:55:59.295Z,6.98
2018-11-20T16:58:47.664Z,7.00
2018-11-20T17:01:35.938Z,7.00
2018-11-20T17:04:24.192Z,7.09
2018-11-20T17:07:12.476Z,7.00
2018-11-20T17:10:00.749Z,7.02
2018-11-20T17:12:48.999Z,7.11
2018-11-20T17:15:37.206Z,7.14
2018-11-20T17:18:25.464Z,7.09
2018-11-20T17:21:32.582Z,6.84
2018-11-20T17:27:16.169Z,6.94
2018-11-20T17:32:57.304Z,6.93
2018-11-20T17:35:45.583Z,6.87
2018-11-20T17:38:34.744Z,6.82
2018-11-20T17:41:23.786Z,6.80
2018-11-20T17:44:12.446Z,6.86
2018-11-20T17:47:00.882Z,6.82
2018-11-20T17:49:49.358Z,6.65
2018-11-20T17:52:38.457Z,6.74
2018-11-20T17:55:28.100Z,6.69
2018-11-20T17:58:16.363Z,6.81
2018-11-20T18:01:04.868Z,6.68
2018-11-20T18:03:53.145Z,6.57
2018-11-20T18:06:41.373Z,6.45
2018-11-20T18:09:29.715Z,6.38
2018-11-20T18:12:17.951Z,6.53
2018-11-20T18:15:06.299Z,6.52
2018-11-20T18:17:54.525Z,6.59
2018-11-20T18:20:42.842Z,6.48
2018-11-20T18:23:31.068Z,6.36
2018-11-20T18:26:20.505Z,6.26
2018-11-20T18:29:08.716Z,6.31
2018-11-20T18:31:56.990Z,6.49
2018-11-20T18:34:45.424Z,6.47
2018-11-20T18:37:33.580Z,6.37
2018-11-20T18:40:21.794Z,6.38
2018-11-20T18:43:11.624Z,6.32
2018-11-20T18:45:59.151Z,6.22
2018-11-20T18:48:47.446Z,6.32
2018-11-20T18:51:35.678Z,6.11
2018-11-20T18:54:23.952Z,6.26
2018-11-20T18:57:12.158Z,6.12
2018-11-20T19:00:00.634Z,6.19
2018-11-20T19:02:48.846Z,6.11
2018-11-20T19:05:37.121Z,6.20
2018-11-20T19:08:25.783Z,6.03
2018-11-20T19:11:14.058Z,6.06
2018-11-20T19:14:02.270Z,5.96
2018-11-20T19:16:51.403Z,5.87
2018-11-20T19:19:58.528Z,5.80
2018-11-20T19:23:05.704Z,5.75
2018-11-20T19:25:53.922Z,5.79
2018-11-20T19:28:42.261Z,5.79
2018-11-20T19:31:28.917Z,5.82
2018-11-20T19:34:17.262Z,5.96
2018-11-20T19:37:05.481Z,5.85
2018-11-20T19:39:48.155Z,5.75
2018-11-20T19:42:36.377Z,5.68
2018-11-20T19:45:25.856Z,5.61
2018-11-20T19:48:14.104Z,5.58
2018-11-20T19:54:15.286Z,5.62
2018-11-20T19:59:56.894Z,5.70
2018-11-20T20:02:45.501Z,5.77
2018-11-20T20:05:52.709Z,5.71
2018-11-20T20:08:41.088Z,5.64
2018-11-20T20:11:48.276Z,5.58
2018-11-20T20:14:29.367Z,5.66
2018-11-20T20:17:17.662Z,5.64
2018-11-20T20:20:06.090Z,5.37
2018-11-20T20:22:54.579Z,5.22
2018-11-20T20:26:02.822Z,5.17
2018-11-20T20:28:51.313Z,5.16
2018-11-20T20:31:40.292Z,5.30
2018-11-20T20:34:29.205Z,5.29
2018-11-20T20:37:18.130Z,5.36
2018-11-20T20:40:06.642Z,5.40
2018-11-20T20:42:55.092Z,5.30
2018-11-20T20:45:43.513Z,5.33
2018-11-20T20:48:35.797Z,5.26
2018-11-20T20:51:21.157Z,5.20
2018-11-20T20:54:12.557Z,5.38
2018-11-20T20:56:57.849Z,5.40
2018-11-20T20:59:46.548Z,5.35
2018-11-20T21:02:34.894Z,5.35
2018-11-20T21:05:24.105Z,5.33
2018-11-20T21:08:12.541Z,5.18
2018-11-20T21:13:55.029Z,5.02
2018-11-20T21:16:43.768Z,4.97
2018-11-20T21:19:55.275Z,5.11
2018-11-20T21:23:05.396Z,5.33
2018-11-20T21:25:53.667Z,5.36
2018-11-20T21:28:42.243Z,5.24
2018-11-20T21:31:30.455Z,5.07
2018-11-20T21:34:19.267Z,4.96
2018-11-20T21:37:07.538Z,4.87
2018-11-20T21:39:55.887Z,4.84
2018-11-20T21:42:44.190Z,4.80
2018-11-20T21:45:32.405Z,4.75
2018-11-20T21:48:21.098Z,4.74
2018-11-20T21:51:09.316Z,4.89
2018-11-20T21:53:48.024Z,5.00
2018-11-20T21:56:36.435Z,5.00
2018-11-20T21:59:27.540Z,5.06
2018-11-20T22:02:15.968Z,4.84
2018-11-20T22:05:04.272Z,4.76
2018-11-20T22:07:52.506Z,4.79
2018-11-20T22:10:40.827Z,4.75
2018-11-20T22:13:29.061Z,4.64
2018-11-20T22:16:17.740Z,4.73
2018-11-20T22:19:05.953Z,4.81
2018-11-20T22:21:54.258Z,4.89
2018-11-20T22:24:42.784Z,4.94
2018-11-20T22:27:31.594Z,4.83
2018-11-20T22:30:20.376Z,4.90
2018-11-20T22:33:08.887Z,4.90
2018-11-20T22:35:57.304Z,5.02
2018-11-20T22:38:46.111Z,4.96
2018-11-20T22:41:34.600Z,4.91
2018-11-20T22:44:23.055Z,4.94
2018-11-20T22:47:12.363Z,4.74
2018-11-20T22:53:14.584Z,4.68
2018-11-20T22:56:02.922Z,4.67
2018-11-20T22:58:51.227Z,4.75
2018-11-20T23:01:39.519Z,4.65
2018-11-20T23:04:27.797Z,4.60
2018-11-20T23:07:16.050Z,4.81
2018-11-20T23:09:45.685Z,4.70
2018-11-20T23:12:15.357Z,4.55
2018-11-20T23:17:19.866Z,4.56
2018-11-20T23:19:49.562Z,4.57
2018-11-20T23:22:19.147Z,4.60
2018-11-20T23:24:48.834Z,4.66
2018-11-20T23:27:18.433Z,4.53
2018-11-20T23:29:48.037Z,4.56
2018-11-20T23:32:17.678Z,4.53
2018-11-20T23:34:48.167Z,4.64
2018-11-20T23:37:17.775Z,4.56
2018-11-20T23:39:47.342Z,4.62
2018-11-20T23:42:17.073Z,4.51
2018-11-20T23:44:46.758Z,4.43
2018-11-20T23:47:16.389Z,4.47
2018-11-20T23:49:45.985Z,4.39
2018-11-20T23:52:34.241Z,4.50
2018-11-20T23:55:03.873Z,4.46
2018-11-20T23:57:33.600Z,4.35
